Linda — OJML — position and weather

sailwx.info

Track history (hours):
 
Tides and Currents Weather Stations Pressure Air Temp Water Temp Dewpoint Dewpoint Depression Visibility Wind Speed Wind Dir Waves Ship Positions

Linda

Last reported at 2015-May-23 00:22 UTC. Time now 2015-May-24 15:24 UTC.
Position N 55°50' E 016°03'.

Length 141 m; draft 7.6 m.

Type: Ship (hazmat cat A). MMSI: 230984000.

Date/timePositionNaut miles runAvg speedWind from/ knotsBaromVisibWave heightAir tempDewpointWater temp
2015-May-23 00:22N 55°50' E 016°03'1417.7
2015-May-22 23:33N 55°43' E 015°41'1817.7
2015-May-22 22:33N 55°34' E 015°13'1817.6
2015-May-22 21:33N 55°25' E 014°47'1717.5
2015-May-22 20:33N 55°14' E 014°24'5016.7
2015-May-22 17:33N 55°15' E 012°56'1312.9
2015-May-22 16:33N 55°24' E 012°40'1211.6
2015-May-22 15:33N 55°35' E 012°42'9 9.0
2015-May-22 14:34N 55°44' E 012°41'1615.7
2015-May-22 13:33N 56°00' E 012°40'1615.6
2015-May-22 12:33N 56°11' E 012°20'1817.0
2015-May-22 11:31N 56°10' E 011°48'4217.0
2015-May-22 09:04N 56°04' E 010°34'917.2
2015-May-22 08:33N 56°08' E 010°19'3 1.5
2015-May-22 06:30N 56°09' E 010°14'0 0.0
2015-May-22 05:18N 56°09' E 010°14'0 0.0
2015-May-22 04:24N 56°09' E 010°14'0 0.0
2015-May-22 03:29N 56°09' E 010°14'7 7.9
2015-May-22 02:33N 56°07' E 010°27'1713.0
2015-May-22 01:16N 56°04' E 010°56'4512.1
2015-May-21 21:33N 56°40' E 011°46'1211.4
2015-May-21 20:32N 56°51' E 011°48'1312.9
2015-May-21 19:33N 57°03' E 011°40'1212.4
2015-May-21 18:33N 57°15' E 011°31'1211.5
2015-May-21 17:33N 57°26' E 011°24'1111.5
2015-May-21 16:33N 57°34' E 011°10'1212.1
2015-May-21 15:33N 57°43' E 010°53'1211.4
2015-May-21 14:33N 57°47' E 010°33'20614.3
2015-May-21 00:08N 55°17' E 006°18'6516.5
2015-May-20 20:10N 54°21' E 005°17'1217.9
2015-May-20 19:29N 54°11' E 005°05'1717.3
2015-May-20 18:29N 53°55' E 004°56'1717.7
2015-May-20 17:31N 53°38' E 004°50'1818.1
2015-May-20 16:33N 53°22' E 004°39'1918.3
2015-May-20 15:31N 53°05' E 004°26'1717.5
2015-May-20 14:33N 52°50' E 004°13'1717.1
2015-May-20 13:33N 52°35' E 003°58'1616.5
2015-May-20 12:33N 52°19' E 003°52'1716.6
2015-May-20 11:33N 52°03' E 003°55'1414.3
2015-May-20 10:33N 51°55' E 004°14'7 6.8
2015-May-20 09:31N 51°53' E 004°25'0 0.0
2015-May-20 08:31N 51°53' E 004°25'0 0.0
2015-May-20 07:31N 51°53' E 004°25'0 0.0
2015-May-20 06:31N 51°53' E 004°25'0 0.0
2015-May-20 05:31N 51°53' E 004°25'0 0.0
2015-May-20 04:31N 51°53' E 004°25'0 0.0
2015-May-20 03:31N 51°53' E 004°25'0 0.0
2015-May-20 02:31N 51°53' E 004°25'0 0.0
2015-May-20 01:31N 51°53' E 004°25'0 0.0
2015-May-20 00:31N 51°53' E 004°25'0 0.0
2015-May-19 23:31N 51°53' E 004°25'0 0.0
2015-May-19 22:31N 51°53' E 004°25'0 0.0
2015-May-19 21:31N 51°53' E 004°25'0 0.0
2015-May-19 20:31N 51°53' E 004°25'0 0.0
2015-May-19 19:31N 51°53' E 004°25'0 0.0
2015-May-19 18:31N 51°53' E 004°25'0 0.0
2015-May-19 17:31N 51°53' E 004°25'0 0.0
2015-May-19 16:31N 51°53' E 004°25'0 0.0
2015-May-19 15:31N 51°53' E 004°25'0 0.0
2015-May-19 14:31N 51°53' E 004°25'0 0.0
2015-May-19 13:31N 51°53' E 004°25'0 0.0
2015-May-19 12:31N 51°53' E 004°25'0 0.0
2015-May-19 11:31N 51°53' E 004°25'0 0.0
2015-May-19 10:31N 51°53' E 004°25'0 0.0
2015-May-19 09:28N 51°53' E 004°25'0 0.0
2015-May-19 08:31N 51°53' E 004°25'0 0.0
2015-May-19 07:31N 51°53' E 004°25'0 0.0
2015-May-19 06:31N 51°53' E 004°25'4 4.4
2015-May-19 05:33N 51°54' E 004°18'1414.2
2015-May-19 04:33N 52°00' E 003°58'1514.5
2015-May-19 03:32N 52°05' E 003°36'6616.4
2015-May-18 23:32N 52°46' E 002°12'1717.2
2015-May-18 22:33N 52°58' E 001°51'1817.7
2015-May-18 21:34N 53°09' E 001°28'1817.6
2015-May-18 20:31N 53°22' E 001°07'1817.3
2015-May-18 19:28N 53°38' E 000°51'1617.8
2015-May-18 18:33N 53°50' E 000°34'1818.4
2015-May-18 17:33N 54°04' E 000°13'1919.1
2015-May-18 16:33N 54°18' W 000°10'2519.3
2015-May-18 15:15N 54°34' W 000°43'1318.9
2015-May-18 14:33N 54°39' W 001°04'5 4.1
2015-May-18 13:26N 54°36' W 001°09'0 0.0
2015-May-18 12:32N 54°36' W 001°09'0 0.0
2015-May-18 11:32N 54°36' W 001°09'0 0.0
2015-May-18 10:17N 54°36' W 001°09'0 0.0
2015-May-18 09:32N 54°36' W 001°09'0 0.0
2015-May-18 08:32N 54°36' W 001°09'0 0.0
2015-May-18 07:20N 54°36' W 001°09'0 0.0
2015-May-18 06:32N 54°36' W 001°09'0 0.0
2015-May-18 05:20N 54°36' W 001°09'4 3.1
2015-May-18 04:05N 54°40' W 001°08'611.2
2015-May-18 03:32N 54°43' W 000°59'1110.8
2015-May-18 02:33N 54°48' W 000°42'1111.1
2015-May-18 01:33N 54°53' W 000°25'1212.1
2015-May-18 00:33N 54°58' W 000°06'37713.4
2015-May-16 20:25N 57°42' E 010°06'1112.9
2015-May-16 19:33N 57°45' E 010°26'1312.7
2015-May-16 18:33N 57°46' E 010°50'1414.1
2015-May-16 17:33N 57°36' E 011°09'1514.7
2015-May-16 16:33N 57°25' E 011°27'1515.5
2015-May-16 15:33N 57°11' E 011°38'1616.3
2015-May-16 14:33N 56°56' E 011°48'1515.3
2015-May-16 13:33N 56°40' E 011°50'10815.4
2015-May-16 06:30N 54°56' E 010°56'1515.8
2015-May-16 05:33N 54°41' E 010°55'1615.9
2015-May-16 04:33N 54°34' E 011°19'1615.8
2015-May-16 03:33N 54°27' E 011°44'1515.4
2015-May-16 02:33N 54°27' E 012°11'6015.1
2015-May-15 22:33N 54°59' E 013°39'2016.3
2015-May-15 21:21N 55°08' E 014°10'1316.5
2015-May-15 20:33N 55°18' E 014°24'1616.3
2015-May-15 19:34N 55°29' E 014°44'1716.3
2015-May-15 18:31N 55°38' E 015°10'1616.3
2015-May-15 17:33N 55°46' E 015°34'1616.2
2015-May-15 16:34N 55°54' E 015°59'321 8.0
2015-May-14 00:17N 59°37' E 023°13'1217.1
2015-May-13 23:33N 59°41' E 023°36'1716.9
2015-May-13 22:33N 59°47' E 024°08'3114.9
2015-May-13 20:28N 59°59' E 025°05'1313.9
2015-May-13 19:33N 60°11' E 025°13'2 1.6
2015-May-13 18:32N 60°13' E 025°12'0 0.0
2015-May-13 17:29N 60°13' E 025°12'0 0.0
2015-May-13 16:32N 60°13' E 025°12'0 0.0
2015-May-13 15:26N 60°13' E 025°12'0 0.0
2015-May-13 14:32N 60°13' E 025°12'0 0.0
2015-May-13 13:20N 60°13' E 025°12'0 0.0
2015-May-13 12:29N 60°13' E 025°12'0 0.0
2015-May-13 11:32N 60°13' E 025°12'0 0.0
2015-May-13 10:26N 60°13' E 025°12'0 0.0
2015-May-13 09:32N 60°13' E 025°12'0 0.0
2015-May-13 08:32N 60°13' E 025°12'0 0.0
2015-May-13 07:32N 60°13' E 025°12'0 0.0
2015-May-13 06:32N 60°13' E 025°12'0 0.0
2015-May-13 05:32N 60°13' E 025°12'0 0.0
2015-May-13 04:29N 60°13' E 025°12'0 0.0
2015-May-13 03:32N 60°13' E 025°12'0 0.0
2015-May-13 02:32N 60°13' E 025°12'0 0.0
2015-May-13 01:32N 60°13' E 025°12'0 0.0
2015-May-13 00:32N 60°13' E 025°12'  
Track history (hours):
 
Tides and Currents Weather Stations Pressure Air Temp Water Temp Dewpoint Dewpoint Depression Visibility Wind Speed Wind Dir Waves Ship Positions

Linda

Last reported at 2015-May-23 00:22 UTC. Time now 2015-May-24 15:24 UTC.
Position N 55°50' E 016°03'.

Length 141 m; draft 7.6 m.

Type: Ship (hazmat cat A). MMSI: 230984000.

Date/timePositionNaut miles runAvg speedWind from/ knotsBaromVisibWave heightAir tempDewpointWater temp
2015-May-23 00:22N 55°50' E 016°03'1417.7
2015-May-22 23:33N 55°43' E 015°41'1817.7
2015-May-22 22:33N 55°34' E 015°13'1817.6
2015-May-22 21:33N 55°25' E 014°47'1717.5
2015-May-22 20:33N 55°14' E 014°24'5016.7
2015-May-22 17:33N 55°15' E 012°56'1312.9
2015-May-22 16:33N 55°24' E 012°40'1211.6
2015-May-22 15:33N 55°35' E 012°42'9 9.0
2015-May-22 14:34N 55°44' E 012°41'1615.7
2015-May-22 13:33N 56°00' E 012°40'1615.6
2015-May-22 12:33N 56°11' E 012°20'1817.0
2015-May-22 11:31N 56°10' E 011°48'4217.0
2015-May-22 09:04N 56°04' E 010°34'917.2
2015-May-22 08:33N 56°08' E 010°19'3 1.5
2015-May-22 06:30N 56°09' E 010°14'0 0.0
2015-May-22 05:18N 56°09' E 010°14'0 0.0
2015-May-22 04:24N 56°09' E 010°14'0 0.0
2015-May-22 03:29N 56°09' E 010°14'7 7.9
2015-May-22 02:33N 56°07' E 010°27'1713.0
2015-May-22 01:16N 56°04' E 010°56'4512.1
2015-May-21 21:33N 56°40' E 011°46'1211.4
2015-May-21 20:32N 56°51' E 011°48'1312.9
2015-May-21 19:33N 57°03' E 011°40'1212.4
2015-May-21 18:33N 57°15' E 011°31'1211.5
2015-May-21 17:33N 57°26' E 011°24'1111.5
2015-May-21 16:33N 57°34' E 011°10'1212.1
2015-May-21 15:33N 57°43' E 010°53'1211.4
2015-May-21 14:33N 57°47' E 010°33'20614.3
2015-May-21 00:08N 55°17' E 006°18'6516.5
2015-May-20 20:10N 54°21' E 005°17'1217.9
2015-May-20 19:29N 54°11' E 005°05'1717.3
2015-May-20 18:29N 53°55' E 004°56'1717.7
2015-May-20 17:31N 53°38' E 004°50'1818.1
2015-May-20 16:33N 53°22' E 004°39'1918.3
2015-May-20 15:31N 53°05' E 004°26'1717.5
2015-May-20 14:33N 52°50' E 004°13'1717.1
2015-May-20 13:33N 52°35' E 003°58'1616.5
2015-May-20 12:33N 52°19' E 003°52'1716.6
2015-May-20 11:33N 52°03' E 003°55'1414.3
2015-May-20 10:33N 51°55' E 004°14'7 6.8
2015-May-20 09:31N 51°53' E 004°25'0 0.0
2015-May-20 08:31N 51°53' E 004°25'0 0.0
2015-May-20 07:31N 51°53' E 004°25'0 0.0
2015-May-20 06:31N 51°53' E 004°25'0 0.0
2015-May-20 05:31N 51°53' E 004°25'0 0.0
2015-May-20 04:31N 51°53' E 004°25'0 0.0
2015-May-20 03:31N 51°53' E 004°25'0 0.0
2015-May-20 02:31N 51°53' E 004°25'0 0.0
2015-May-20 01:31N 51°53' E 004°25'0 0.0
2015-May-20 00:31N 51°53' E 004°25'0 0.0
2015-May-19 23:31N 51°53' E 004°25'0 0.0
2015-May-19 22:31N 51°53' E 004°25'0 0.0
2015-May-19 21:31N 51°53' E 004°25'0 0.0
2015-May-19 20:31N 51°53' E 004°25'0 0.0
2015-May-19 19:31N 51°53' E 004°25'0 0.0
2015-May-19 18:31N 51°53' E 004°25'0 0.0
2015-May-19 17:31N 51°53' E 004°25'0 0.0
2015-May-19 16:31N 51°53' E 004°25'0 0.0
2015-May-19 15:31N 51°53' E 004°25'0 0.0
2015-May-19 14:31N 51°53' E 004°25'0 0.0
2015-May-19 13:31N 51°53' E 004°25'0 0.0
2015-May-19 12:31N 51°53' E 004°25'0 0.0
2015-May-19 11:31N 51°53' E 004°25'0 0.0
2015-May-19 10:31N 51°53' E 004°25'0 0.0
2015-May-19 09:28N 51°53' E 004°25'0 0.0
2015-May-19 08:31N 51°53' E 004°25'0 0.0
2015-May-19 07:31N 51°53' E 004°25'0 0.0
2015-May-19 06:31N 51°53' E 004°25'4 4.4
2015-May-19 05:33N 51°54' E 004°18'1414.2
2015-May-19 04:33N 52°00' E 003°58'1514.5
2015-May-19 03:32N 52°05' E 003°36'6616.4
2015-May-18 23:32N 52°46' E 002°12'1717.2
2015-May-18 22:33N 52°58' E 001°51'1817.7
2015-May-18 21:34N 53°09' E 001°28'1817.6
2015-May-18 20:31N 53°22' E 001°07'1817.3
2015-May-18 19:28N 53°38' E 000°51'1617.8
2015-May-18 18:33N 53°50' E 000°34'1818.4
2015-May-18 17:33N 54°04' E 000°13'1919.1
2015-May-18 16:33N 54°18' W 000°10'2519.3
2015-May-18 15:15N 54°34' W 000°43'1318.9
2015-May-18 14:33N 54°39' W 001°04'5 4.1
2015-May-18 13:26N 54°36' W 001°09'0 0.0
2015-May-18 12:32N 54°36' W 001°09'0 0.0
2015-May-18 11:32N 54°36' W 001°09'0 0.0
2015-May-18 10:17N 54°36' W 001°09'0 0.0
2015-May-18 09:32N 54°36' W 001°09'0 0.0
2015-May-18 08:32N 54°36' W 001°09'0 0.0
2015-May-18 07:20N 54°36' W 001°09'0 0.0
2015-May-18 06:32N 54°36' W 001°09'0 0.0
2015-May-18 05:20N 54°36' W 001°09'4 3.1
2015-May-18 04:05N 54°40' W 001°08'611.2
2015-May-18 03:32N 54°43' W 000°59'1110.8
2015-May-18 02:33N 54°48' W 000°42'1111.1
2015-May-18 01:33N 54°53' W 000°25'1212.1
2015-May-18 00:33N 54°58' W 000°06'37713.4
2015-May-16 20:25N 57°42' E 010°06'1112.9
2015-May-16 19:33N 57°45' E 010°26'1312.7
2015-May-16 18:33N 57°46' E 010°50'1414.1
2015-May-16 17:33N 57°36' E 011°09'1514.7
2015-May-16 16:33N 57°25' E 011°27'1515.5
2015-May-16 15:33N 57°11' E 011°38'1616.3
2015-May-16 14:33N 56°56' E 011°48'1515.3
2015-May-16 13:33N 56°40' E 011°50'10815.4
2015-May-16 06:30N 54°56' E 010°56'1515.8
2015-May-16 05:33N 54°41' E 010°55'1615.9
2015-May-16 04:33N 54°34' E 011°19'1615.8
2015-May-16 03:33N 54°27' E 011°44'1515.4
2015-May-16 02:33N 54°27' E 012°11'6015.1
2015-May-15 22:33N 54°59' E 013°39'2016.3
2015-May-15 21:21N 55°08' E 014°10'1316.5
2015-May-15 20:33N 55°18' E 014°24'1616.3
2015-May-15 19:34N 55°29' E 014°44'1716.3
2015-May-15 18:31N 55°38' E 015°10'1616.3
2015-May-15 17:33N 55°46' E 015°34'1616.2
2015-May-15 16:34N 55°54' E 015°59'321 8.0
2015-May-14 00:17N 59°37' E 023°13'1217.1
2015-May-13 23:33N 59°41' E 023°36'1716.9
2015-May-13 22:33N 59°47' E 024°08'3114.9
2015-May-13 20:28N 59°59' E 025°05'1313.9
2015-May-13 19:33N 60°11' E 025°13'2 1.6
2015-May-13 18:32N 60°13' E 025°12'0 0.0
2015-May-13 17:29N 60°13' E 025°12'0 0.0
2015-May-13 16:32N 60°13' E 025°12'0 0.0
2015-May-13 15:26N 60°13' E 025°12'0 0.0
2015-May-13 14:32N 60°13' E 025°12'0 0.0
2015-May-13 13:20N 60°13' E 025°12'0 0.0
2015-May-13 12:29N 60°13' E 025°12'0 0.0
2015-May-13 11:32N 60°13' E 025°12'0 0.0
2015-May-13 10:26N 60°13' E 025°12'0 0.0
2015-May-13 09:32N 60°13' E 025°12'0 0.0
2015-May-13 08:32N 60°13' E 025°12'0 0.0
2015-May-13 07:32N 60°13' E 025°12'0 0.0
2015-May-13 06:32N 60°13' E 025°12'0 0.0
2015-May-13 05:32N 60°13' E 025°12'0 0.0
2015-May-13 04:29N 60°13' E 025°12'0 0.0
2015-May-13 03:32N 60°13' E 025°12'0 0.0
2015-May-13 02:32N 60°13' E 025°12'0 0.0
2015-May-13 01:32N 60°13' E 025°12'0 0.0
2015-May-13 00:32N 60°13' E 025°12'  

Dump ship's entire track history